Latest Weather Observations for Avalon

IDV60801

Issued at 6:32 am EDT Saturday 19 October 2019 (issued every 10 minutes, with the page automatically refreshed every 10 minutes)

About weather observations | Map of weather stations | Latest weather observations for VIC | Other Formats
Station Details ID: 087113 Name: AVALON AIRPORT Lat: -38.03 Lon: 144.48 Height: 10.6 m
Data from the previous 72 hours. | See also: Recent months at Avalon
Date/Time
EDT
Temp
°C
App
Temp
°C
Dew
Point
°C
Rel
Hum
%
Delta-T
°C
Wind Press
QNH
hPa
Press
MSL
hPa
Rain since
9am
mm
Dir  Spd
km/h
Gust
km/h
Spd
kts
Gust
kts
19/06:30am 7.4 2.3 4.2 80 1.4 WNW 20 30 11 16 1013.4 1013.4 0.8
19/06:00am 8.5 3.3 5.3 80 1.4 WNW 22 32 12 17 1013.0 1013.0 0.8
19/05:30am 8.7 4.0 6.0 83 1.2 WNW 20 33 11 18 1012.8 1012.8 0.8
19/05:00am 8.3 3.8 6.8 90 0.7 WNW 20 28 11 15 1012.7 1012.7 0.8
19/04:30am 7.6 3.6 6.7 94 0.4 WNW 17 22 9 12 1012.8 1012.8 0.8
19/04:00am 8.0 3.5 6.1 88 0.9 WNW 19 22 10 12 1012.7 1012.7 0.8
19/03:30am 8.0 4.3 6.1 88 0.9 NW 15 19 8 10 1012.9 1012.9 0.8
19/03:00am 8.3 4.3 6.6 89 0.8 NW 17 20 9 11 1013.0 1013.0 0.8
19/02:30am 8.2 5.5 7.3 94 0.4 WNW 11 13 6 7 1012.9 1012.9 0.8
19/02:00am 8.4 5.2 7.0 91 0.7 WNW 13 15 7 8 1013.0 1013.0 0.8
19/01:30am 9.6 5.9 7.9 89 0.8 WNW 17 20 9 11 1013.2 1013.2 0.8
19/01:00am 9.2 5.5 8.0 92 0.6 W 17 20 9 11 1013.5 1013.5 0.8
19/12:30am 9.3 4.6 7.9 91 0.7 W 22 28 12 15 1013.5 1013.5 0.8
19/12:00am 8.7 5.7 7.6 93 0.5 W 13 19 7 10 1013.5 1013.5 0.8
 
Date/Time
EDT
Temp
°C
App
Temp
°C
Dew
Point
°C
Rel
Hum
%
Delta-T
°C
Wind Press
QNH
hPa
Press
MSL
hPa
Rain since
9am
mm
Dir  Spd
km/h
Gust
km/h
Spd
kts
Gust
kts
18/11:30pm 9.8 7.0 8.7 93 0.5 WNW 13 19 7 10 1013.4 1013.4 0.8
18/11:00pm 10.4 6.6 9.0 91 0.7 WNW 19 24 10 13 1013.4 1013.4 0.8
18/10:30pm 10.4 6.5 9.5 94 0.4 WNW 20 26 11 14 1013.1 1013.1 0.8
18/10:00pm 10.8 6.6 9.7 93 0.6 WNW 22 28 12 15 1013.1 1013.1 0.8
18/09:30pm 11.1 7.4 10.3 95 0.4 WNW 20 30 11 16 1013.2 1013.2 0.8
18/09:00pm 11.0 7.0 10.4 96 0.3 WNW 22 32 12 17 1013.2 1013.2 0.8
18/08:38pm 11.1 6.0 10.6 97 0.3 W 28 39 15 21 1012.9 1012.9 0.8
18/08:35pm 11.1 6.1 10.8 98 0.2 W 28 39 15 21 1012.8 1012.8 0.8
18/08:30pm 11.0 5.9 10.7 98 0.2 W 28 43 15 23 1012.7 1012.7 0.4
18/08:22pm 11.1 5.0 10.5 96 0.3 W 33 52 18 28 1012.7 1012.7 0.4
18/08:19pm 11.2 4.3 10.4 95 0.4 WSW 37 52 20 28 1012.6 1012.6 0.4
18/08:09pm 11.5 5.2 9.8 89 0.9 WSW 33 52 18 28 1012.3 1012.3 0.0
18/08:03pm 12.2 7.4 11.6 96 0.3 W 28 39 15 21 1012.1 1012.1 0.0
18/08:00pm 12.2 7.4 11.6 96 0.3 W 28 35 15 19 1012.1 1012.1 0.0
18/07:34pm 12.4 5.8 11.3 93 0.6 W 37 56 20 30 1011.5 1011.5 0.0
18/07:30pm 12.3 5.2 11.0 92 0.7 W 39 54 21 29 1011.4 1011.4 0.0
18/07:00pm 14.0 7.3 9.6 75 2.3 WSW 35 46 19 25 1009.9 1009.9 0.0
18/06:48pm 18.5 13.2 6.7 46 5.9 WNW 24 48 13 26 1009.4 1009.4 0.0
18/06:30pm 19.4 13.4 5.1 39 7.0 NW 26 43 14 23 1008.7 1008.7 0.0
18/06:05pm 19.7 11.1 4.6 37 7.3 NW 39 57 21 31 1008.8 1008.8 0.0
18/06:00pm 19.8 11.3 5.1 38 7.2 NW 39 54 21 29 1008.9 1008.9 0.0
18/05:30pm 20.0 10.6 4.5 36 7.5 NW 43 61 23 33 1008.6 1008.6 0.0
18/05:10pm 20.5 11.6 4.9 36 7.6 NW 41 59 22 32 1008.8 1008.8 0.0
18/05:00pm 21.3 11.6 5.6 36 7.8 NW 46 61 25 33 1008.9 1008.9 0.0
18/04:41pm 20.2 12.2 5.8 39 7.1 NW 37 56 20 30 1009.1 1009.1 0.0
18/04:30pm 19.6 10.1 4.9 38 7.1 NW 44 59 24 32 1009.2 1009.2 0.0
18/04:07pm 21.1 11.3 5.5 36 7.7 NW 46 65 25 35 1009.2 1009.2 0.0
18/04:00pm 20.8 10.2 5.2 36 7.7 NW 50 63 27 34 1009.4 1009.4 0.0
18/03:35pm 20.1 11.7 5.4 38 7.2 NW 39 57 21 31 1009.8 1009.8 0.0
18/03:30pm 20.0 10.8 5.3 38 7.2 NW 43 56 23 30 1010.0 1010.0 0.0
18/03:10pm 19.2 9.7 4.9 39 6.9 NW 44 63 24 34 1010.1 1010.1 0.0
18/03:00pm 19.7 9.5 5.4 39 7.0 NW 48 59 26 32 1010.1 1010.1 0.0
18/02:30pm 20.2 10.1 5.8 39 7.1 NW 48 72 26 39 1010.3 1010.3 0.0
18/02:13pm 19.4 9.6 5.1 39 7.0 NW 46 65 25 35 1010.5 1010.5 0.0
18/02:00pm 19.8 9.8 6.2 41 6.8 NW 48 61 26 33 1010.8 1010.8 0.0
18/01:33pm 19.3 8.9 6.1 42 6.5 NW 50 76 27 41 1011.1 1011.1 0.0
18/01:30pm 19.0 9.3 5.8 42 6.5 NW 46 63 25 34 1011.3 1011.3 0.0
18/01:06pm 18.6 8.6 6.1 44 6.2 NW 48 69 26 37 1011.8 1011.8 0.0
18/01:00pm 18.3 8.7 6.2 45 6.0 NW 46 59 25 32 1011.8 1011.8 0.0
18/12:46pm 18.6 10.1 6.8 46 5.9 NW 41 59 22 32 1012.0 1012.0 0.0
18/12:30pm 17.6 10.6 6.8 49 5.4 NW 33 50 18 27 1012.3 1012.3 0.0
18/12:00pm 16.3 9.8 6.7 53 4.7 NW 30 41 16 22 1013.1 1013.1 0.0
18/11:42am 15.4 8.3 6.2 54 4.4 NW 33 52 18 28 1013.3 1013.3 0.0
18/11:30am 14.8 7.2 5.6 54 4.4 NW 35 46 19 25 1013.6 1013.6 0.0
18/11:01am 15.6 8.4 5.8 52 4.7 NW 33 52 18 28 1014.0 1014.0 0.0
18/11:00am 15.6 8.0 5.8 52 4.7 NW 35 52 19 28 1014.0 1014.0 0.0
18/10:30am 14.9 7.7 5.1 52 4.6 NW 32 41 17 22 1014.3 1014.3 0.0
18/10:00am 15.0 8.5 6.6 57 4.1 NW 30 39 16 21 1014.5 1014.5 0.0
18/09:30am 13.2 7.6 5.4 59 3.6 NNW 24 37 13 20 1014.8 1014.8 0.0
18/09:00am 11.8 5.4 5.0 63 3.1 NNW 28 35 15 19 1015.1 1015.1 0.0
18/08:30am 10.6 5.9 5.2 69 2.5 N 19 24 10 13 1015.2 1015.2 0.0
18/08:00am 9.6 4.7 5.2 74 2.0 N 20 32 11 17 1015.1 1015.1 0.0
18/07:30am 7.6 2.6 4.4 80 1.4 N 20 30 11 16 1015.1 1015.1 0.0
18/07:00am 6.7 1.2 3.9 82 1.2 N 22 28 12 15 1015.1 1015.1 0.0
18/06:30am 6.7 1.6 4.0 83 1.2 N 20 24 11 13 1015.0 1015.0 0.0
18/06:00am 5.2 1.7 3.4 88 0.7 N 11 15 6 8 1015.1 1015.1 0.0
18/05:30am 5.3 1.4 3.5 88 0.7 N 13 15 7 8 1015.2 1015.2 0.0
18/05:00am 5.5 2.1 4.0 90 0.6 N 11 13 6 7 1015.3 1015.3 0.0
18/04:30am 5.7 1.9 3.9 88 0.8 N 13 17 7 9 1015.4 1015.4 0.0
18/04:00am 6.3 2.5 3.8 84 1.1 N 13 13 7 7 1015.5 1015.5 0.0
18/03:30am 8.3 5.0 4.3 76 1.7 NNW 11 13 6 7 1015.9 1015.9 0.0
18/03:00am 9.5 6.0 5.3 75 1.9 NNW 13 20 7 11 1016.0 1016.0 0.0
18/02:30am 8.7 5.6 5.4 80 1.5 NNW 11 15 6 8 1016.2 1016.2 0.0
18/02:00am 8.2 5.0 5.1 81 1.4 NW 11 13 6 7 1016.2 1016.2 0.0
18/01:30am 7.2 3.8 5.7 90 0.7 NNW 13 13 7 7 1016.5 1016.5 0.0
18/01:00am 7.6 4.1 5.4 86 1.0 NNW 13 17 7 9 1016.7 1016.7 0.0
18/12:30am 7.9 4.3 6.7 92 0.6 WNW 15 20 8 11 1016.8 1016.8 0.0
18/12:00am 8.5 5.0 7.4 93 0.5 NW 15 17 8 9 1016.8 1016.8 0.0
 
Date/Time
EDT
Temp
°C
App
Temp
°C
Dew
Point
°C
Rel
Hum
%
Delta-T
°C
Wind Press
QNH
hPa
Press
MSL
hPa
Rain since
9am
mm
Dir  Spd
km/h
Gust
km/h
Spd
kts
Gust
kts
17/11:30pm 8.7 5.7 7.5 92 0.6 NW 13 15 7 8 1016.9 1016.9 0.0
17/11:00pm 9.3 5.9 7.7 90 0.8 NW 15 17 8 9 1016.9 1016.9 0.0
17/10:30pm 10.2 6.5 8.0 86 1.1 W 17 22 9 12 1016.8 1016.8 0.0
17/10:00pm 10.5 7.3 8.3 86 1.1 W 15 19 8 10 1016.7 1016.7 0.0
17/09:30pm 11.0 6.8 8.2 83 1.4 W 20 32 11 17 1016.4 1016.4 0.0
17/09:00pm 11.3 6.3 8.0 80 1.6 W 24 39 13 21 1015.9 1015.9 0.0
17/08:30pm 11.6 7.3 7.9 78 1.8 W 20 35 11 19 1015.3 1015.3 0.0
17/08:00pm 11.9 7.5 6.6 70 2.5 W 19 26 10 14 1014.7 1014.7 0.0
17/07:30pm 12.6 7.3 6.6 67 2.9 W 24 37 13 20 1014.0 1014.0 0.0
17/07:00pm 13.2 6.9 7.6 69 2.7 W 30 44 16 24 1013.3 1013.3 0.0
17/06:43pm 14.0 7.3 7.5 65 3.2 W 32 50 17 27 1013.0 1013.0 0.0
17/06:30pm 14.1 6.6 7.9 66 3.1 W 37 50 20 27 1012.6 1012.6 0.0
17/06:00pm 13.8 6.7 8.2 69 2.8 WSW 35 54 19 29 1012.2 1012.2 0.0
17/05:33pm 13.7 4.8 7.5 66 3.0 WSW 44 63 24 34 1011.8 1011.8 0.0
17/05:30pm 13.8 4.4 7.3 65 3.2 WSW 46 63 25 34 1011.7 1011.7 0.0
17/05:00pm 14.1 7.5 8.5 69 2.8 WSW 33 52 18 28 1011.2 1011.2 0.0
17/04:54pm 14.7 7.2 9.5 71 2.7 WSW 39 57 21 31 1011.2 1011.2 0.0
17/04:30pm 14.9 5.6 6.0 55 4.3 WSW 44 57 24 31 1010.4 1010.4 0.0
17/04:04pm 16.6 9.2 8.3 58 4.2 W 37 56 20 30 1009.7 1009.7 0.0
17/04:00pm 15.8 9.1 8.3 61 3.8 W 33 48 18 26 1009.8 1009.8 0.0
17/03:30pm 13.8 7.6 9.3 74 2.3 W 32 50 17 27 1009.6 1009.6 0.0
17/03:28pm 13.7 6.9 9.2 74 2.3 W 35 54 19 29 1009.7 1009.7 0.0
17/03:00pm 13.8 5.1 8.4 70 2.7 WNW 44 56 24 30 1009.7 1009.7 0.0
17/02:30pm 13.7 5.6 9.9 78 2.0 WNW 43 57 23 31 1009.8 1009.8 0.0
17/02:08pm 14.4 4.8 8.1 66 3.1 WNW 48 67 26 36 1009.6 1009.6 0.0
17/02:00pm 14.8 5.3 8.5 66 3.2 WNW 48 65 26 35 1009.7 1009.7 0.0
17/01:30pm 13.1 3.0 7.3 68 2.8 WNW 50 70 27 38 1009.7 1009.7 0.0
17/01:10pm 12.4 3.6 7.1 70 2.6 WNW 43 63 23 34 1009.9 1009.9 0.0
17/01:00pm 11.4 2.7 6.1 70 2.5 WNW 41 52 22 28 1009.9 1009.9 0.0
17/12:45pm 11.6 1.9 5.9 68 2.7 WNW 46 63 25 34 1010.1 1010.1 0.0
17/12:44pm 11.7 2.0 6.0 68 2.7 WNW 46 63 25 34 1010.0 1010.0 0.0
17/12:30pm 11.4 -0.2 5.9 69 2.6 WNW 56 76 30 41 1009.9 1009.9 0.0
17/12:00pm 12.5 3.2 6.1 65 3.0 WNW 44 67 24 36 1009.6 1009.6 0.0
17/11:42am 12.6 3.0 6.4 66 2.9 WNW 46 67 25 36 1009.3 1009.3 0.0
17/11:30am 13.2 3.8 5.6 60 3.6 WNW 44 57 24 31 1009.0 1009.0 0.0
17/11:01am 12.5 4.0 7.0 69 2.6 WNW 41 59 22 32 1009.2 1009.2 0.0
17/11:00am 12.4 3.5 6.9 69 2.6 WNW 43 59 23 32 1009.1 1009.1 0.0
17/10:42am 13.3 4.9 7.5 68 2.8 WNW 41 63 22 34 1008.9 1008.9 0.0
17/10:30am 11.6 3.9 7.3 75 2.1 WNW 37 50 20 27 1009.1 1009.1 0.0
17/10:00am 11.8 2.9 6.7 71 2.4 W 43 57 23 31 1008.8 1008.8 0.0
17/09:34am 10.9 2.0 6.8 76 1.9 WNW 43 61 23 33 1008.9 1008.9 0.0
17/09:30am 11.6 3.0 8.1 79 1.7 WNW 43 54 23 29 1008.9 1008.9 0.0
17/09:00am 9.5 3.0 6.6 82 1.4 WNW 30 41 16 22 1008.6 1008.6 10.4
17/08:30am 8.8 1.4 6.9 88 0.9 WNW 35 48 19 26 1008.1 1008.1 10.4
17/08:17am 9.0 1.9 6.4 84 1.2 WNW 33 54 18 29 1008.1 1008.1 10.4
17/08:00am 9.1 2.1 6.0 81 1.4 WNW 32 39 17 21 1007.9 1007.9 10.4
17/07:30am 8.8 2.5 5.7 81 1.4 NW 28 39 15 21 1007.8 1007.8 10.4
17/07:00am 8.2 3.4 5.8 85 1.1 WNW 20 28 11 15 1007.3 1007.3 10.4
17/06:30am 8.3 3.5 5.8 84 1.1 WNW 20 35 11 19 1006.9 1006.9 10.4
17/06:00am 8.7 3.3 6.3 85 1.1 WNW 24 33 13 18 1006.3 1006.3 10.4
17/05:30am 8.5 4.0 6.8 89 0.8 WNW 20 26 11 14 1006.2 1006.2 10.4
17/05:00am 9.0 2.6 6.8 86 1.0 WNW 30 39 16 21 1006.1 1006.1 10.4
17/04:30am 9.4 5.2 8.3 93 0.5 WNW 20 24 11 13 1006.0 1006.0 10.4
17/04:00am 9.4 5.9 8.9 97 0.2 NW 17 28 9 15 1006.5 1006.5 10.4
17/03:30am 9.6 5.0 9.5 99 0.0 WNW 24 32 13 17 1006.8 1006.8 10.4
17/03:00am 9.4 2.2 9.3 99 0.0 W 37 69 20 37 1007.2 1007.2 10.2
17/02:53am 9.8 4.1 9.8 100 0.0 NNW 30 69 16 37 1007.2 1007.2 10.0
17/02:51am 10.3 6.3 10.3 100 0.0 NNW 22 67 12 36 1007.0 1007.0 9.6
17/02:30am 11.0 9.2 11.0 100 0.0 N 11 15 6 8 1006.6 1006.6 8.2
17/02:00am 10.4 9.2 10.4 100 0.0 NNW 7 9 4 5 1007.1 1007.1 8.2
17/01:30am 11.5 10.3 11.5 100 0.0 N 9 15 5 8 1007.2 1007.2 8.2
17/01:00am 11.6 10.4 11.6 100 0.0 NNW 9 11 5 6 1007.9 1007.9 8.2
17/12:30am 11.3 10.6 11.3 100 0.0 NNW 6 9 3 5 1008.2 1008.2 8.2
17/12:00am 11.7 10.9 11.7 100 0.0 W 7 9 4 5 1008.7 1008.7 8.2
 
Date/Time
EDT
Temp
°C
App
Temp
°C
Dew
Point
°C
Rel
Hum
%
Delta-T
°C
Wind Press
QNH
hPa
Press
MSL
hPa
Rain since
9am
mm
Dir  Spd
km/h
Gust
km/h
Spd
kts
Gust
kts
16/11:30pm 11.5 10.8 11.5 100 0.0 NW 6 9 3 5 1008.9 1008.9 8.0
16/11:00pm 11.1 9.8 11.1 100 0.0 NNW 9 11 5 6 1009.1 1009.1 8.0
16/10:30pm 11.6 12.0 11.4 99 0.1 CALM 0 0 0 0 1009.2 1009.2 8.0
16/10:00pm 11.4 11.8 11.2 99 0.1 CALM 0 2 0 1 1009.4 1009.4 8.0
16/09:30pm 11.3 10.3 11.1 99 0.1 SSW 7 9 4 5 1009.5 1009.5 8.0
16/09:00pm 11.4 10.5 11.2 99 0.1 SW 7 11 4 6 1009.4 1009.4 8.0
16/08:30pm 11.0 9.6 10.8 99 0.1 SSW 9 11 5 6 1009.0 1009.0 8.0
16/08:00pm 11.6 9.4 10.8 95 0.4 S 13 15 7 8 1008.8 1008.8 8.0
16/07:30pm 12.7 9.9 11.4 92 0.7 S 17 24 9 13 1008.8 1008.8 8.0
16/07:00pm 13.5 11.2 11.7 89 1.0 S 15 20 8 11 1008.5 1008.5 8.0
16/06:30pm 14.4 12.7 12.4 88 1.1 S 13 19 7 10 1008.0 1008.0 8.0
16/06:00pm 14.4 12.5 13.1 92 0.7 SSE 15 24 8 13 1007.8 1007.8 8.0
16/05:47pm 14.3 12.7 13.8 97 0.3 SSE 15 19 8 10 1007.7 1007.7 8.0
16/05:30pm 14.0 13.1 13.8 99 0.1 SE 11 19 6 10 1007.8 1007.8 8.0
16/05:23pm 14.0 13.5 13.8 99 0.1 SE 9 13 5 7 1007.8 1007.8 8.0
16/05:21pm 13.9 13.4 13.7 99 0.1 SSE 9 13 5 7 1007.9 1007.9 8.0
16/05:03pm 14.1 12.9 13.9 99 0.1 S 13 20 7 11 1007.8 1007.8 8.0
16/05:02pm 13.7 12.3 13.5 99 0.1 S 13 20 7 11 1007.9 1007.9 8.0
16/05:00pm 13.3 11.8 13.1 99 0.1 S 13 17 7 9 1008.1 1008.1 8.0
16/04:55pm 13.4 11.9 13.2 99 0.1 S 13 17 7 9 1007.9 1007.9 7.8
16/04:42pm 13.2 9.9 12.7 97 0.3 S 22 28 12 15 1007.9 1007.9 7.0
16/04:33pm 14.3 11.3 12.5 89 1.0 WNW 20 28 11 15 1007.8 1007.8 4.6
16/04:30pm 15.3 13.1 13.3 88 1.1 NW 17 22 9 12 1007.4 1007.4 4.2
16/04:00pm 15.8 12.8 12.5 81 1.8 NW 20 28 11 15 1007.3 1007.3 3.2
16/03:30pm 16.5 13.6 14.0 85 1.4 NW 22 30 12 16 1007.7 1007.7 3.2
16/03:00pm 16.7 13.1 13.0 79 2.1 W 24 35 13 19 1007.7 1007.7 3.2
16/02:36pm 16.5 13.3 13.2 81 1.8 W 22 35 12 19 1008.1 1008.1 3.2
16/02:30pm 16.4 12.5 13.3 82 1.7 W 26 39 14 21 1008.1 1008.1 3.2
16/02:18pm 15.6 10.3 12.4 81 1.8 W 32 50 17 27 1008.3 1008.3 3.0
16/02:15pm 15.5 9.8 11.9 79 2.0 W 33 50 18 27 1008.3 1008.3 2.0
16/02:00pm 19.7 13.9 9.6 52 5.4 WNW 30 39 16 21 1007.8 1007.8 0.0
16/01:30pm 21.0 15.2 9.6 48 6.1 WNW 30 41 16 22 1007.9 1007.9 0.0
16/01:00pm 21.0 14.4 9.9 49 6.0 NW 35 46 19 25 1008.2 1008.2 0.0
16/12:38pm 19.9 14.9 11.1 57 4.8 NW 28 46 15 25 1008.7 1008.7 0.0
16/12:30pm 19.3 16.0 11.6 61 4.2 NNW 20 35 11 19 1008.9 1008.9 0.0
16/12:00pm 17.2 14.2 12.7 75 2.5 N 20 28 11 15 1009.3 1009.3 0.0
16/11:30am 15.6 13.1 12.4 81 1.8 N 17 24 9 13 1009.6 1009.6 0.0
16/11:00am 15.1 13.2 13.0 87 1.2 NNE 15 20 8 11 1010.0 1010.0 0.0
16/10:30am 14.2 12.8 13.4 95 0.4 NNE 13 19 7 10 1010.3 1010.3 0.0
16/10:00am 13.7 12.3 13.5 99 0.1 N 13 17 7 9 1010.6 1010.6 0.0
16/09:30am 13.2 11.7 13.2 100 0.0 N 13 17 7 9 1011.0 1011.0 0.0
16/09:00am 12.9 11.7 12.9 100 0.0 N 11 15 6 8 1010.9 1010.9 0.2
16/08:30am 12.9 12.1 12.9 100 0.0 N 9 13 5 7 1010.9 1010.9 0.0
16/08:00am 12.7 12.4 12.7 100 0.0 NE 6 7 3 4 1011.0 1011.0 0.0
16/07:30am 12.6 11.7 12.6 100 0.0 NNE 9 11 5 6 1011.2 1011.2 0.0
16/07:00am 12.4 13.2 12.4 100 0.0 CALM 0 0 0 0 1011.3 1011.3 0.0

Other formats

Comma delimited format used in spreadsheet applications
http://www.bom.gov.au/fwo/IDV60801/IDV60801.94854.axf

JavaScript Object Notation format (JSON) in row-major order
http://www.bom.gov.au/fwo/IDV60801/IDV60801.94854.json

Data quality

Most of these data are generated automatically and are frequently updated. Quality checks on data are not normally performed. It is possible for incorrect values to appear. Refer to information at About Latest Weather Observations and please check the disclaimer before using these data.